Time;durP1;ratioP1;P1;durP2;ratioP2;P2;SDS_P1;SDS_P2;PMS_P1;PMS_P2;Temp;Humidity;BMP_temperature;BMP_pressure;BME280_temperature;BME280_humidity;BME280_pressure;Samples;Min_cycle;Max_cycle;Signal;HPM_P1;HPM_P2
2021/12/24 00:01:07;;;;;;;60.37;35.90;;;7.60;99.90;;;;;;5016657;28;20074;-73
2021/12/24 00:03:34;;;;;;;64.03;35.67;;;7.60;99.90;;;;;;5016238;28;20021;-74
2021/12/24 00:06:01;;;;;;;54.53;31.67;;;7.60;99.90;;;;;;5016681;28;20037;-74
2021/12/24 00:08:27;;;;;;;62.83;35.30;;;7.60;99.90;;;;;;5033856;28;20043;-74
2021/12/24 00:10:59;;;;;;;63.63;36.30;;;7.60;99.90;;;;;;4999833;28;20485;-74
2021/12/24 00:13:27;;;;;;;65.90;38.63;;;7.70;99.90;;;;;;5015499;28;20021;-74
2021/12/24 00:22:13;;;;;;;70.77;37.83;;;7.80;99.90;;;;;;4934421;29;20028;-74
2021/12/24 00:35:27;;;;;;;68.67;35.33;;;7.90;99.90;;;;;;5034612;28;19911;-73
2021/12/24 00:37:53;;;;;;;68.00;36.20;;;7.90;99.90;;;;;;5012358;28;20066;-76
2021/12/24 00:40:20;;;;;;;63.47;34.13;;;8.00;99.90;;;;;;5012557;28;20511;-73
2021/12/24 00:42:51;;;;;;;74.93;37.03;;;8.00;99.90;;;;;;5012662;28;20014;-74
2021/12/24 00:45:21;;;;;;;72.80;37.90;;;8.00;99.90;;;;;;5012501;28;20033;-75
2021/12/24 00:47:50;;;;;;;69.60;37.37;;;8.20;99.90;;;;;;5013636;28;20034;-74
2021/12/24 00:50:22;;;;;;;65.27;36.20;;;8.10;99.90;;;;;;5013707;28;20116;-73
2021/12/24 00:52:50;;;;;;;74.10;37.30;;;8.10;99.90;;;;;;5012572;28;20406;-74
2021/12/24 00:55:19;;;;;;;68.40;36.27;;;8.20;99.90;;;;;;5012549;28;20429;-74
2021/12/24 00:57:48;;;;;;;61.37;33.93;;;8.30;99.90;;;;;;5013535;28;20497;-74
2021/12/24 01:00:34;;;;;;;65.67;35.47;;;8.30;99.90;;;;;;5012241;28;20022;-74
2021/12/24 01:03:01;;;;;;;63.07;32.87;;;8.30;99.90;;;;;;5012285;28;20069;-74
2021/12/24 01:05:28;;;;;;;68.57;33.97;;;8.30;99.90;;;;;;5012144;28;20034;-74
2021/12/24 01:07:55;;;;;;;64.30;34.73;;;8.40;99.90;;;;;;5013251;28;20022;-74
2021/12/24 01:10:24;;;;;;;60.63;31.87;;;8.40;99.90;;;;;;5013236;28;20029;-74
2021/12/24 01:12:50;;;;;;;57.47;32.90;;;8.40;99.90;;;;;;5013377;28;20407;-75
2021/12/24 01:15:18;;;;;;;59.37;31.83;;;8.40;99.90;;;;;;5012053;28;20042;-74
2021/12/24 01:20:29;;;;;;;61.13;33.37;;;8.50;99.90;;;;;;5013003;28;20038;-74
2021/12/24 01:25:49;;;;;;;55.33;30.63;;;8.50;99.90;;;;;;5017714;28;20367;-74
2021/12/24 01:28:47;;;;;;;55.90;29.20;;;8.60;99.90;;;;;;5017352;28;20492;-73
2021/12/24 01:44:49;;;;;;;49.63;27.63;;;8.70;99.90;;;;;;5022518;28;20437;-74
2021/12/24 01:47:15;;;;;;;50.07;29.60;;;8.70;99.90;;;;;;5037116;28;20021;-73
2021/12/24 01:49:41;;;;;;;50.17;28.00;;;8.70;99.90;;;;;;5036549;28;20029;-73
2021/12/24 01:52:08;;;;;;;46.57;29.20;;;8.80;99.90;;;;;;5002649;28;20026;-74
2021/12/24 01:54:34;;;;;;;47.93;27.97;;;8.80;99.90;;;;;;5019029;28;20033;-75
2021/12/24 01:57:00;;;;;;;45.27;27.03;;;8.80;99.90;;;;;;5018719;28;20014;-75
2021/12/24 01:59:26;;;;;;;45.73;26.80;;;8.80;99.90;;;;;;5036805;28;20021;-74
2021/12/24 02:01:52;;;;;;;49.00;27.70;;;8.80;99.90;;;;;;5018997;28;20163;-74
2021/12/24 02:04:19;;;;;;;47.50;27.97;;;8.80;99.90;;;;;;5036696;28;20030;-73
2021/12/24 02:06:46;;;;;;;47.03;28.30;;;8.90;99.90;;;;;;5036312;28;20029;-74
2021/12/24 02:09:12;;;;;;;49.03;28.77;;;8.90;99.90;;;;;;5018911;28;20029;-73
2021/12/24 02:11:39;;;;;;;54.27;30.10;;;8.90;99.90;;;;;;5018771;28;20034;-75
2021/12/24 02:14:11;;;;;;;53.20;32.53;;;8.90;99.90;;;;;;5018502;28;20034;-74
2021/12/24 02:17:06;;;;;;;50.80;30.50;;;8.90;99.90;;;;;;5018282;28;20013;-74
2021/12/24 02:30:30;;;;;;;57.70;33.40;;;8.90;99.90;;;;;;5001284;28;20037;-74
2021/12/24 02:32:56;;;;;;;57.97;34.00;;;9.00;99.90;;;;;;5016215;28;20069;-75
2021/12/24 02:35:22;;;;;;;60.30;33.53;;;9.00;99.90;;;;;;4997980;28;20030;-75
2021/12/24 02:37:49;;;;;;;60.50;34.00;;;9.00;99.90;;;;;;4998001;28;20107;-74
2021/12/24 02:40:15;;;;;;;65.30;35.90;;;9.00;99.90;;;;;;4982272;28;20030;-74
2021/12/24 02:42:47;;;;;;;63.37;34.63;;;9.10;99.90;;;;;;4982642;28;20034;-74
2021/12/24 02:45:13;;;;;;;65.57;37.07;;;9.10;99.90;;;;;;4999420;28;20106;-74
2021/12/24 02:47:57;;;;;;;71.27;37.23;;;9.10;99.90;;;;;;5015967;28;20113;-74
2021/12/24 02:55:35;;;;;;;80.73;40.40;;;9.10;99.90;;;;;;5015956;28;20037;-74
2021/12/24 02:58:00;;;;;;;75.13;40.17;;;9.10;99.90;;;;;;5015515;28;20034;-74
2021/12/24 03:00:27;;;;;;;76.70;40.23;;;9.20;99.90;;;;;;4997931;28;20478;-74
2021/12/24 03:02:54;;;;;;;75.73;38.80;;;9.20;99.90;;;;;;5002062;28;20018;-74
2021/12/24 03:05:22;;;;;;;76.30;38.87;;;9.10;99.90;;;;;;5001128;28;20116;-73
2021/12/24 03:07:48;;;;;;;79.20;41.43;;;9.20;99.90;;;;;;5035100;28;20034;-74
2021/12/24 03:10:17;;;;;;;86.03;41.40;;;9.30;99.90;;;;;;5035144;28;20034;-75
2021/12/24 03:12:45;;;;;;;84.70;41.37;;;9.20;99.90;;;;;;5034733;28;20496;-74
2021/12/24 03:15:13;;;;;;;83.27;40.87;;;9.20;99.90;;;;;;5017570;28;20496;-74
2021/12/24 03:17:45;;;;;;;77.43;39.40;;;9.30;99.90;;;;;;5034757;28;20017;-76
2021/12/24 03:20:11;;;;;;;92.23;40.53;;;9.20;99.90;;;;;;5016993;28;20030;-74
2021/12/24 03:23:04;;;;;;;72.07;36.63;;;9.30;99.90;;;;;;5017448;28;20083;-74
2021/12/24 03:25:30;;;;;;;79.87;40.50;;;9.30;99.90;;;;;;5004596;28;20030;-75
2021/12/24 03:27:56;;;;;;;84.87;41.70;;;9.30;99.90;;;;;;5016956;28;20037;-75
2021/12/24 03:30:22;;;;;;;85.73;39.57;;;9.30;99.90;;;;;;5017128;28;20037;-74
2021/12/24 03:32:48;;;;;;;72.53;40.17;;;9.30;99.90;;;;;;5017097;28;20474;-75
2021/12/24 03:35:13;;;;;;;72.80;38.93;;;9.40;99.90;;;;;;5017220;28;20032;-75
2021/12/24 03:37:39;;;;;;;70.37;37.83;;;9.40;99.90;;;;;;5034550;28;20028;-75
2021/12/24 03:40:05;;;;;;;70.30;37.03;;;9.30;99.90;;;;;;5000333;28;20049;-75
2021/12/24 03:42:31;;;;;;;78.67;36.67;;;9.40;99.90;;;;;;5034634;28;20123;-75
2021/12/24 03:45:07;;;;;;;70.97;35.80;;;9.40;99.90;;;;;;5000480;28;20048;-75
2021/12/24 03:47:38;;;;;;;68.33;34.43;;;9.40;99.90;;;;;;5018284;28;20026;-79
2021/12/24 03:50:09;;;;;;;67.30;36.00;;;9.50;99.90;;;;;;4985475;28;20362;-76
2021/12/24 03:55:01;;;;;;;60.33;30.13;;;9.50;99.90;;;;;;5034328;28;20456;-74
2021/12/24 03:57:35;;;;;;;60.03;30.60;;;9.50;99.90;;;;;;5034300;28;20025;-75
2021/12/24 04:00:30;;;;;;;53.63;29.20;;;9.50;99.90;;;;;;5016559;28;20057;-75
2021/12/24 04:02:55;;;;;;;61.72;31.15;;;9.60;99.90;;;;;;5016347;28;20117;-74
2021/12/24 04:05:21;;;;;;;52.10;27.70;;;9.50;99.90;;;;;;5016683;28;20116;-75
2021/12/24 04:07:47;;;;;;;55.93;28.40;;;9.60;99.90;;;;;;5000132;28;20545;-75
2021/12/24 04:10:40;;;;;;;51.50;27.50;;;9.60;99.90;;;;;;5016220;28;20061;-79
2021/12/24 04:12:59;;;;;;;43.43;25.67;;;9.60;99.90;;;;;;5033827;28;20088;-75
2021/12/24 04:15:24;;;;;;;51.93;26.63;;;9.60;99.90;;;;;;5033655;28;20029;-76
2021/12/24 04:17:50;;;;;;;45.37;25.90;;;9.60;99.90;;;;;;5016604;28;20029;-75
2021/12/24 04:25:44;;;;;;;;;;;9.60;99.90;;;;;;5019475;28;20543;-76
2021/12/24 04:28:10;;;;;;;46.60;26.07;;;9.60;99.90;;;;;;5033657;28;19909;-75
2021/12/24 04:30:42;;;;;;;45.67;24.43;;;9.60;99.90;;;;;;5033511;28;20465;-75
2021/12/24 04:33:16;;;;;;;40.77;23.43;;;9.60;99.90;;;;;;5033416;28;20116;-79
2021/12/24 04:35:46;;;;;;;46.97;23.53;;;9.60;99.90;;;;;;5016126;28;20095;-75
2021/12/24 04:51:48;;;;;;;39.22;22.05;;;9.60;99.90;;;;;;5034332;28;19920;-75
2021/12/24 05:05:10;;;;;;;40.50;22.20;;;9.60;99.90;;;;;;5040103;28;20025;-75
2021/12/24 05:08:09;;;;;;;43.63;21.50;;;9.60;99.90;;;;;;5022074;28;20477;-76
2021/12/24 05:10:37;;;;;;;48.27;21.83;;;9.60;99.90;;;;;;5039136;28;20452;-75
2021/12/24 05:13:07;;;;;;;39.53;20.03;;;9.60;99.90;;;;;;5006443;28;20063;-75
2021/12/24 05:15:37;;;;;;;34.87;19.73;;;9.60;99.90;;;;;;5021903;28;20018;-75
2021/12/24 05:23:34;;;;;;;37.88;18.20;;;9.60;99.90;;;;;;5020135;28;20602;-75
2021/12/24 05:26:01;;;;;;;49.40;19.43;;;9.60;99.90;;;;;;5019648;28;20042;-75
2021/12/24 05:28:27;;;;;;;41.43;19.63;;;9.60;99.90;;;;;;5002442;28;20129;-75
2021/12/24 05:30:52;;;;;;;34.50;17.60;;;9.60;99.90;;;;;;5002282;28;20030;-75
2021/12/24 05:33:18;;;;;;;45.90;19.00;;;9.60;99.90;;;;;;4985972;28;20060;-74
2021/12/24 05:35:45;;;;;;;39.07;18.30;;;9.60;99.90;;;;;;5019854;28;20083;-75
2021/12/24 05:38:12;;;;;;;32.90;16.57;;;9.60;99.90;;;;;;5002457;28;20042;-75
2021/12/24 05:40:38;;;;;;;42.87;17.30;;;9.60;99.90;;;;;;5002029;28;20398;-75
2021/12/24 05:43:04;;;;;;;35.70;15.87;;;9.60;99.90;;;;;;5019632;28;20040;-76
2021/12/24 05:45:30;;;;;;;36.93;17.20;;;9.60;99.90;;;;;;5021261;28;20048;-76
2021/12/24 05:47:55;;;;;;;32.53;17.37;;;9.60;99.90;;;;;;5005291;28;20370;-75
2021/12/24 05:50:21;;;;;;;29.27;16.57;;;9.60;99.90;;;;;;5021659;28;20042;-74
2021/12/24 05:52:47;;;;;;;36.83;17.30;;;9.60;99.90;;;;;;5035032;28;20454;-74
2021/12/24 05:55:12;;;;;;;33.33;16.40;;;9.60;99.90;;;;;;5007397;28;20486;-75
2021/12/24 05:57:38;;;;;;;41.30;16.97;;;9.60;99.90;;;;;;5008214;28;20038;-75
2021/12/24 06:00:06;;;;;;;32.20;15.93;;;9.60;99.90;;;;;;4996331;28;20038;-76
2021/12/24 06:02:33;;;;;;;39.83;15.27;;;9.60;99.90;;;;;;5037489;28;20080;-75
2021/12/24 06:04:59;;;;;;;29.60;13.60;;;9.60;99.90;;;;;;5039838;28;20478;-77
2021/12/24 06:07:24;;;;;;;39.70;15.33;;;9.60;99.90;;;;;;5040013;28;20068;-76
2021/12/24 06:09:50;;;;;;;20.67;12.67;;;9.60;99.90;;;;;;5038832;28;20029;-76
2021/12/24 06:12:16;;;;;;;31.67;14.00;;;9.60;99.90;;;;;;5035636;28;20113;-77
2021/12/24 06:14:44;;;;;;;33.23;13.27;;;9.60;99.90;;;;;;4999895;28;20030;-82
2021/12/24 06:17:15;;;;;;;32.57;13.53;;;9.60;99.90;;;;;;5019038;28;20029;-77
2021/12/24 06:19:41;;;;;;;35.23;12.13;;;9.60;99.90;;;;;;5036583;28;20057;-75
2021/12/24 06:22:07;;;;;;;26.90;10.83;;;9.60;99.90;;;;;;5017794;28;20041;-78
2021/12/24 06:24:32;;;;;;;27.77;10.73;;;9.60;99.90;;;;;;5038984;28;20045;-77
2021/12/24 06:26:58;;;;;;;27.90;11.63;;;9.50;99.90;;;;;;5003485;28;20052;-76
2021/12/24 06:29:24;;;;;;;26.93;10.77;;;9.60;99.90;;;;;;5003895;28;20160;-76
2021/12/24 06:31:51;;;;;;;26.10;10.60;;;9.60;99.90;;;;;;5004677;28;20092;-76
2021/12/24 06:34:18;;;;;;;22.83;10.20;;;9.60;99.90;;;;;;5001998;28;20412;-77
2021/12/24 06:36:47;;;;;;;34.90;11.83;;;9.60;99.90;;;;;;4998380;28;20034;-76
2021/12/24 06:39:13;;;;;;;25.03;10.00;;;9.50;99.90;;;;;;5017249;28;20412;-77
2021/12/24 06:41:39;;;;;;;23.80;10.00;;;9.50;99.90;;;;;;5018109;28;20116;-76
2021/12/24 06:44:09;;;;;;;21.40;9.40;;;9.60;99.90;;;;;;5017817;28;20076;-76
2021/12/24 06:46:34;;;;;;;19.90;9.47;;;9.50;99.90;;;;;;5035837;28;20030;-73
2021/12/24 06:49:00;;;;;;;27.80;10.97;;;9.50;99.90;;;;;;4993927;28;20037;-76
2021/12/24 06:51:27;;;;;;;26.50;10.23;;;9.50;99.90;;;;;;5001922;28;20042;-76
2021/12/24 06:53:53;;;;;;;21.53;10.63;;;9.50;99.90;;;;;;4994366;28;20371;-76
2021/12/24 06:56:20;;;;;;;33.30;11.87;;;9.60;99.90;;;;;;5018016;28;20034;-75
2021/12/24 06:58:45;;;;;;;37.43;11.87;;;9.50;99.90;;;;;;5017584;28;20026;-75
2021/12/24 07:01:12;;;;;;;29.87;11.43;;;9.50;99.90;;;;;;5035404;28;20103;-76
2021/12/24 07:03:38;;;;;;;30.93;10.67;;;9.50;99.90;;;;;;5002345;28;20038;-76
2021/12/24 07:06:04;;;;;;;29.60;10.30;;;9.40;99.90;;;;;;5015377;28;20052;-75
2021/12/24 07:08:31;;;;;;;24.43;9.40;;;9.50;99.90;;;;;;4997733;28;20030;-76
2021/12/24 07:10:58;;;;;;;22.93;9.40;;;9.40;99.90;;;;;;5003699;28;20030;-79
2021/12/24 07:13:25;;;;;;;23.13;10.10;;;9.40;99.90;;;;;;5000818;28;20032;-77
2021/12/24 07:15:50;;;;;;;20.67;9.10;;;9.50;99.90;;;;;;5035089;28;20025;-76
2021/12/24 07:18:16;;;;;;;30.53;9.73;;;9.40;99.90;;;;;;5017324;28;20038;-76
2021/12/24 07:20:42;;;;;;;26.83;9.43;;;9.40;99.90;;;;;;5034604;28;20539;-76
2021/12/24 07:23:07;;;;;;;29.20;9.93;;;9.40;99.90;;;;;;5034219;28;20047;-76
2021/12/24 07:25:33;;;;;;;27.47;8.83;;;9.30;99.90;;;;;;5035003;28;20041;-76
2021/12/24 07:28:00;;;;;;;24.73;9.37;;;9.30;99.90;;;;;;5017087;28;20369;-75
2021/12/24 07:30:27;;;;;;;25.10;9.50;;;9.30;99.90;;;;;;5016642;28;20477;-76
2021/12/24 07:32:52;;;;;;;28.40;9.47;;;9.30;99.90;;;;;;5034638;28;20033;-75
2021/12/24 07:35:18;;;;;;;25.67;8.90;;;9.30;99.90;;;;;;5034510;28;20030;-76
2021/12/24 07:37:44;;;;;;;29.70;9.30;;;9.30;99.90;;;;;;5034622;28;20057;-74
2021/12/24 07:40:14;;;;;;;22.97;8.50;;;9.30;99.90;;;;;;5017013;28;20037;-75
2021/12/24 07:42:40;;;;;;;21.57;8.37;;;9.30;99.90;;;;;;5001943;28;20040;-75
2021/12/24 07:45:08;;;;;;;30.70;9.60;;;9.30;99.90;;;;;;5034475;28;20033;-76
2021/12/24 07:47:38;;;;;;;29.97;9.40;;;9.20;99.90;;;;;;5017371;28;20466;-74
2021/12/24 07:52:52;;;;;;;24.10;8.93;;;9.30;99.90;;;;;;5034024;28;20040;-75
2021/12/24 07:55:18;;;;;;;27.87;9.57;;;9.30;99.90;;;;;;5016173;28;20459;-75
2021/12/24 07:57:46;;;;;;;18.30;8.03;;;9.20;99.90;;;;;;5016134;28;20120;-75
2021/12/24 08:00:12;;;;;;;25.93;8.43;;;9.20;99.90;;;;;;5033820;28;20052;-75
2021/12/24 08:02:38;;;;;;;31.40;10.27;;;9.20;99.90;;;;;;5000259;28;20090;-76
2021/12/24 08:05:04;;;;;;;24.27;8.80;;;9.20;99.90;;;;;;5016739;28;20471;-76
2021/12/24 08:07:30;;;;;;;27.13;10.93;;;9.20;99.90;;;;;;5033789;28;20040;-76
2021/12/24 08:09:55;;;;;;;31.03;9.47;;;9.20;99.90;;;;;;5016280;28;20120;-75
2021/12/24 08:12:21;;;;;;;30.80;10.13;;;9.20;99.90;;;;;;5016365;28;20029;-76
2021/12/24 08:14:47;;;;;;;26.57;10.07;;;9.30;99.90;;;;;;5033916;28;20088;-76
2021/12/24 08:17:13;;;;;;;24.90;8.40;;;9.20;99.90;;;;;;5016535;28;20029;-76
2021/12/24 08:19:39;;;;;;;22.07;8.97;;;9.20;99.90;;;;;;5034044;28;20061;-75
2021/12/24 08:22:05;;;;;;;28.10;9.83;;;9.10;99.90;;;;;;5016555;28;20064;-75
2021/12/24 08:24:31;;;;;;;28.93;9.73;;;9.10;99.90;;;;;;5016277;28;20393;-76
2021/12/24 08:26:58;;;;;;;26.30;10.63;;;9.20;99.90;;;;;;4999708;28;20033;-76
2021/12/24 08:29:23;;;;;;;23.30;9.87;;;9.20;99.90;;;;;;5015681;28;20044;-76
2021/12/24 08:31:50;;;;;;;26.17;11.23;;;9.20;99.90;;;;;;5033484;28;20458;-75
2021/12/24 08:34:18;;;;;;;24.03;10.80;;;9.20;99.90;;;;;;5015014;28;20120;-77
2021/12/24 08:36:44;;;;;;;24.50;11.40;;;9.20;99.90;;;;;;4994542;28;20033;-76
2021/12/24 08:39:10;;;;;;;29.27;12.07;;;9.20;99.90;;;;;;5010862;28;20071;-76
2021/12/24 08:41:36;;;;;;;24.63;10.93;;;9.10;99.90;;;;;;5016044;28;20072;-76
2021/12/24 08:44:02;;;;;;;29.80;12.13;;;9.10;99.90;;;;;;5033517;28;20456;-77
2021/12/24 08:46:28;;;;;;;29.57;10.77;;;9.10;99.90;;;;;;5016053;28;20519;-77
2021/12/24 08:48:54;;;;;;;22.10;10.03;;;9.20;99.90;;;;;;5015613;28;20120;-80
2021/12/24 08:51:20;;;;;;;28.57;10.93;;;9.10;99.90;;;;;;5033346;28;20065;-78
2021/12/24 08:53:45;;;;;;;34.73;12.77;;;9.10;99.90;;;;;;5033573;28;20037;-75
2021/12/24 08:56:11;;;;;;;28.63;13.33;;;9.10;99.90;;;;;;5015935;28;20112;-74
2021/12/24 08:58:37;;;;;;;25.57;13.90;;;9.10;99.90;;;;;;5016196;28;20026;-73
2021/12/24 09:01:04;;;;;;;35.00;14.53;;;9.10;99.90;;;;;;5013399;28;20172;-74
2021/12/24 09:03:29;;;;;;;39.60;14.40;;;9.10;99.90;;;;;;5003462;28;20394;-75
2021/12/24 09:05:55;;;;;;;31.80;15.33;;;9.10;99.90;;;;;;5013635;28;20034;-74
2021/12/24 09:08:21;;;;;;;46.50;16.53;;;9.00;99.90;;;;;;5020460;28;20040;-74
2021/12/24 09:10:47;;;;;;;36.73;15.50;;;9.10;99.90;;;;;;5015298;28;20040;-76
2021/12/24 09:13:13;;;;;;;30.03;14.23;;;9.10;99.90;;;;;;5015720;28;20029;-74
2021/12/24 09:15:40;;;;;;;36.60;16.43;;;9.10;99.90;;;;;;5014565;28;20095;-74
2021/12/24 09:18:06;;;;;;;34.17;15.97;;;9.10;99.90;;;;;;5013032;28;20040;-74
2021/12/24 09:20:37;;;;;;;37.73;16.43;;;9.10;99.90;;;;;;5035945;28;20071;-74
2021/12/24 09:23:04;;;;;;;31.87;15.17;;;9.10;99.90;;;;;;5034305;28;20091;-74
2021/12/24 09:25:32;;;;;;;34.47;16.83;;;9.00;99.90;;;;;;5009072;28;20034;-73
2021/12/24 09:27:59;;;;;;;40.57;17.83;;;9.10;99.90;;;;;;5020295;28;20033;-73
2021/12/24 09:30:25;;;;;;;33.60;15.47;;;9.10;99.90;;;;;;5007670;28;20026;-74
2021/12/24 09:32:51;;;;;;;28.00;14.33;;;9.10;99.90;;;;;;5032814;28;20418;-74
2021/12/24 09:35:18;;;;;;;41.50;16.33;;;9.10;99.90;;;;;;5015295;28;20032;-73
2021/12/24 09:37:43;;;;;;;35.33;16.07;;;9.10;99.90;;;;;;5015109;28;20431;-73
2021/12/24 09:40:12;;;;;;;41.93;16.20;;;9.10;99.90;;;;;;5032892;28;20124;-73
2021/12/24 09:42:38;;;;;;;37.23;16.10;;;9.20;99.90;;;;;;5015253;28;20038;-74
2021/12/24 09:45:08;;;;;;;43.53;15.17;;;9.20;99.90;;;;;;5016688;28;20032;-73
2021/12/24 09:47:33;;;;;;;36.97;14.63;;;9.20;99.90;;;;;;5036531;28;20026;-73
2021/12/24 09:49:59;;;;;;;44.17;16.07;;;9.20;99.90;;;;;;5036207;28;20504;-73
2021/12/24 09:52:27;;;;;;;31.23;13.93;;;9.20;99.90;;;;;;5002210;28;20032;-73
2021/12/24 09:54:52;;;;;;;35.17;15.13;;;9.20;99.90;;;;;;5036369;28;20025;-73
2021/12/24 09:57:18;;;;;;;35.37;16.07;;;9.20;99.90;;;;;;5018801;28;20072;-73
2021/12/24 09:59:44;;;;;;;30.90;13.87;;;9.20;99.90;;;;;;5036539;28;20021;-73
2021/12/24 10:02:16;;;;;;;41.80;15.83;;;9.20;99.90;;;;;;5002206;28;20049;-73
2021/12/24 10:04:43;;;;;;;32.30;14.37;;;9.20;99.90;;;;;;5036614;28;20057;-73
2021/12/24 10:07:11;;;;;;;33.60;14.30;;;9.20;99.90;;;;;;5036603;28;20026;-73
2021/12/24 10:09:38;;;;;;;39.53;16.63;;;9.10;99.90;;;;;;5036317;28;20021;-74
2021/12/24 10:12:16;;;;;;;36.60;16.00;;;9.20;99.90;;;;;;5036444;28;20087;-74
2021/12/24 10:14:53;;;;;;;34.33;13.77;;;9.20;99.90;;;;;;5035833;28;20547;-73
2021/12/24 10:17:21;;;;;;;34.00;14.33;;;9.30;99.90;;;;;;5018101;28;20436;-75
2021/12/24 10:19:56;;;;;;;29.53;13.77;;;9.30;99.90;;;;;;5036515;28;20032;-73
2021/12/24 10:22:23;;;;;;;27.73;13.17;;;9.30;99.90;;;;;;5018483;28;20370;-74
2021/12/24 10:25:05;;;;;;;30.17;12.90;;;9.40;99.90;;;;;;5018248;28;20083;-74
2021/12/24 10:27:32;;;;;;;34.20;12.93;;;9.30;99.90;;;;;;5018718;28;20084;-74
2021/12/24 10:29:59;;;;;;;36.33;13.93;;;9.40;99.90;;;;;;5035874;28;20040;-74
2021/12/24 10:32:25;;;;;;;36.53;13.87;;;9.40;99.90;;;;;;5035616;28;20026;-74
2021/12/24 10:34:51;;;;;;;32.23;13.20;;;9.40;99.90;;;;;;5018055;28;20083;-73
2021/12/24 10:37:25;;;;;;;30.90;11.33;;;9.40;99.90;;;;;;5001955;28;20068;-73
2021/12/24 10:39:57;;;;;;;36.50;13.03;;;9.40;99.90;;;;;;5017095;28;20045;-73
2021/12/24 10:42:37;;;;;;;27.50;11.80;;;9.40;99.90;;;;;;5035236;28;20022;-75
2021/12/24 10:45:20;;;;;;;27.03;11.53;;;9.40;99.90;;;;;;5017564;28;20028;-73
2021/12/24 10:47:46;;;;;;;29.27;13.00;;;9.40;99.90;;;;;;5035601;28;20051;-72
2021/12/24 10:50:48;;;;;;;33.00;13.20;;;9.40;99.90;;;;;;5001290;28;20021;-72
2021/12/24 10:53:19;;;;;;;34.70;12.70;;;9.40;99.90;;;;;;5034952;28;20026;-74
2021/12/24 10:55:46;;;;;;;33.67;12.77;;;9.40;99.90;;;;;;5016535;28;20079;-73
2021/12/24 10:58:21;;;;;;;30.70;13.60;;;9.40;99.90;;;;;;5038163;28;20134;-74
2021/12/24 11:00:49;;;;;;;35.80;12.20;;;9.40;99.90;;;;;;5034915;28;20029;-72
2021/12/24 11:03:22;;;;;;;36.80;12.27;;;9.40;99.90;;;;;;5035321;28;20029;-74
2021/12/24 11:05:51;;;;;;;24.25;8.68;;;9.40;99.90;;;;;;5034904;28;20022;-72
2021/12/24 11:08:23;;;;;;;28.57;11.60;;;9.40;99.90;;;;;;5017311;28;20639;-75
2021/12/24 11:10:52;;;;;;;36.57;12.17;;;9.40;99.90;;;;;;5017411;28;20032;-73
2021/12/24 11:13:29;;;;;;;29.47;12.70;;;9.40;99.90;;;;;;5017353;28;20354;-73
2021/12/24 11:15:56;;;;;;;32.23;14.00;;;9.30;99.90;;;;;;5038405;28;20036;-73
2021/12/24 11:18:27;;;;;;;33.93;12.17;;;9.40;99.90;;;;;;5025896;28;20064;-74
2021/12/24 11:21:02;;;;;;;31.50;12.27;;;9.40;99.90;;;;;;5035294;28;20025;-74
2021/12/24 11:23:30;;;;;;;32.87;10.70;;;9.40;99.90;;;;;;4997370;28;20030;-74
2021/12/24 11:26:06;;;;;;;31.90;11.30;;;9.40;99.90;;;;;;4981494;28;20029;-74
2021/12/24 11:28:33;;;;;;;27.30;11.60;;;9.40;99.90;;;;;;5022961;28;20029;-73
2021/12/24 11:31:06;;;;;;;35.77;11.37;;;9.40;99.90;;;;;;5017146;28;20026;-74
2021/12/24 11:33:34;;;;;;;29.13;10.70;;;9.40;99.90;;;;;;5035316;28;20037;-74
2021/12/24 11:36:04;;;;;;;23.43;9.07;;;9.50;99.90;;;;;;5034573;28;20091;-74
2021/12/24 11:38:36;;;;;;;25.00;8.13;;;9.50;99.90;;;;;;5016870;28;20192;-74
2021/12/24 11:41:04;;;;;;;28.57;9.13;;;9.50;99.90;;;;;;5016660;28;20084;-73
2021/12/24 11:43:36;;;;;;;28.63;8.90;;;9.50;99.90;;;;;;5016714;28;20029;-74
2021/12/24 11:46:05;;;;;;;22.80;7.43;;;9.50;99.90;;;;;;5034113;28;20033;-73
2021/12/24 11:48:33;;;;;;;25.70;7.67;;;9.60;99.90;;;;;;5034676;28;20030;-73
2021/12/24 11:51:19;;;;;;;25.30;6.90;;;9.60;99.90;;;;;;5034414;28;20034;-73
2021/12/24 11:53:46;;;;;;;23.13;6.67;;;9.70;99.90;;;;;;5034568;28;20018;-74
2021/12/24 11:56:15;;;;;;;25.00;6.30;;;9.70;99.90;;;;;;5000066;28;20048;-74
2021/12/24 11:58:53;;;;;;;19.33;6.97;;;9.70;99.90;;;;;;5012054;28;20080;-73
2021/12/24 12:01:20;;;;;;;21.67;7.23;;;9.70;99.90;;;;;;5016347;28;20028;-74
2021/12/24 12:03:55;;;;;;;19.00;6.17;;;9.70;99.90;;;;;;5016315;28;20083;-73
2021/12/24 12:06:23;;;;;;;25.53;6.33;;;9.80;99.90;;;;;;4996589;28;20026;-73
2021/12/24 12:09:00;;;;;;;18.63;6.77;;;9.80;99.90;;;;;;5015184;28;20049;-72
2021/12/24 12:11:31;;;;;;;25.60;7.77;;;9.80;99.90;;;;;;5033854;28;20024;-74
2021/12/24 12:14:11;;;;;;;22.47;7.80;;;9.80;99.90;;;;;;5016034;28;20080;-73
2021/12/24 12:16:39;;;;;;;22.43;7.57;;;9.80;99.90;;;;;;5033695;28;20064;-74
2021/12/24 12:19:26;;;;;;;22.33;7.47;;;9.80;99.90;;;;;;5033802;28;20076;-73
2021/12/24 12:22:15;;;;;;;26.47;8.50;;;9.80;99.90;;;;;;5016388;28;20018;-73
2021/12/24 12:24:58;;;;;;;29.40;8.20;;;9.80;99.90;;;;;;5031076;28;20021;-73
2021/12/24 12:27:45;;;;;;;29.73;8.27;;;9.80;99.90;;;;;;5030069;28;20056;-76
2021/12/24 12:30:18;;;;;;;22.23;9.77;;;9.80;99.90;;;;;;5025478;28;20431;-76
2021/12/24 12:32:44;;;;;;;31.07;10.33;;;9.80;99.90;;;;;;5030473;28;20123;-76
2021/12/24 12:35:10;;;;;;;26.80;9.67;;;9.80;99.90;;;;;;5033594;28;20057;-73
2021/12/24 12:37:49;;;;;;;35.00;12.33;;;9.70;99.90;;;;;;5015465;28;20128;-75
2021/12/24 12:40:23;;;;;;;23.47;9.47;;;9.80;99.90;;;;;;5015949;28;20378;-72
2021/12/24 12:42:50;;;;;;;22.58;9.15;;;9.80;99.90;;;;;;5015881;28;20112;-73
2021/12/24 12:45:17;;;;;;;21.97;10.03;;;9.80;99.90;;;;;;5033548;28;20353;-74
2021/12/24 12:47:52;;;;;;;26.40;9.80;;;9.80;99.90;;;;;;5033199;28;20064;-73
2021/12/24 12:50:19;;;;;;;23.17;9.13;;;9.70;99.90;;;;;;5015845;28;20029;-73
2021/12/24 12:52:45;;;;;;;24.20;9.87;;;9.70;99.90;;;;;;5015667;28;20508;-74
2021/12/24 12:55:27;;;;;;;30.80;10.53;;;9.70;99.90;;;;;;5032523;28;20087;-73
2021/12/24 12:58:20;;;;;;;28.50;9.80;;;9.80;99.90;;;;;;5004124;28;20114;-72
2021/12/24 13:01:10;;;;;;;26.40;10.57;;;9.70;99.90;;;;;;5026338;28;20029;-72
2021/12/24 13:03:55;;;;;;;32.93;10.93;;;9.60;99.90;;;;;;5015038;28;20025;-72
2021/12/24 13:06:45;;;;;;;22.17;10.55;;;9.60;99.90;;;;;;5008049;28;20359;-72
2021/12/24 13:09:12;;;;;;;29.70;11.53;;;9.60;99.90;;;;;;5007884;28;20041;-73
2021/12/24 13:11:46;;;;;;;30.60;11.23;;;9.50;99.90;;;;;;5015567;28;20028;-74
2021/12/24 13:14:14;;;;;;;32.50;12.30;;;9.50;99.90;;;;;;5032337;28;20462;-72
2021/12/24 13:16:50;;;;;;;30.47;11.80;;;9.50;99.90;;;;;;5013109;28;20033;-72
2021/12/24 13:25:01;;;;;;;27.93;11.93;;;9.40;99.90;;;;;;5018218;28;20128;-76
2021/12/24 13:27:34;;;;;;;28.63;12.20;;;9.50;99.90;;;;;;5018969;28;20116;-74
2021/12/24 13:30:20;;;;;;;28.40;15.00;;;9.50;99.90;;;;;;5019158;28;20040;-74
2021/12/24 13:32:51;;;;;;;41.33;14.97;;;9.40;99.90;;;;;;5035401;28;20075;-75
2021/12/24 13:35:20;;;;;;;32.60;13.80;;;9.40;99.90;;;;;;4999670;28;20037;-76
2021/12/24 13:37:46;;;;;;;32.47;15.03;;;9.40;99.90;;;;;;5024523;28;20025;-75
2021/12/24 13:40:21;;;;;;;37.67;16.23;;;9.40;99.90;;;;;;5035724;28;20489;-76
2021/12/24 13:42:53;;;;;;;32.37;14.93;;;9.40;99.90;;;;;;5035221;28;20025;-77
2021/12/24 13:45:21;;;;;;;38.77;14.13;;;9.40;99.90;;;;;;5010476;28;20029;-77
2021/12/24 13:47:57;;;;;;;39.30;14.43;;;9.40;99.90;;;;;;5019699;28;20040;-76
2021/12/24 13:50:31;;;;;;;30.00;13.63;;;9.40;99.90;;;;;;5054551;28;20036;-75
2021/12/24 13:55:43;;;;;;;24.52;12.63;;;9.50;99.90;;;;;;5036630;28;20121;-76
2021/12/24 13:58:11;;;;;;;42.67;13.90;;;9.40;99.90;;;;;;5018652;28;20386;-75
2021/12/24 14:00:39;;;;;;;32.87;13.67;;;9.40;99.90;;;;;;5036505;28;20527;-75
2021/12/24 14:03:09;;;;;;;35.83;13.47;;;9.50;99.90;;;;;;5033954;28;20105;-75
2021/12/24 14:05:44;;;;;;;26.60;12.30;;;9.40;99.90;;;;;;5028693;28;20026;-75
2021/12/24 14:08:13;;;;;;;26.47;11.33;;;9.40;99.90;;;;;;5013430;28;20120;-78
2021/12/24 14:10:40;;;;;;;31.57;12.17;;;9.40;99.90;;;;;;5018504;28;20030;-77
2021/12/24 14:13:12;;;;;;;27.83;12.13;;;9.50;99.90;;;;;;5025538;28;20415;-76
2021/12/24 14:16:07;;;;;;;29.83;12.37;;;9.40;99.90;;;;;;5027754;28;20029;-78
2021/12/24 14:18:44;;;;;;;24.43;12.30;;;9.40;99.90;;;;;;5054815;28;20123;-75
2021/12/24 14:24:16;;;;;;;32.80;13.13;;;9.40;99.90;;;;;;5049216;28;20442;-75
2021/12/24 14:26:46;;;;;;;31.37;13.43;;;9.40;99.90;;;;;;5035711;28;20030;-75
2021/12/24 14:29:22;;;;;;;27.27;12.17;;;9.40;99.90;;;;;;5035554;28;20039;-74
2021/12/24 14:31:56;;;;;;;29.00;13.07;;;9.40;99.90;;;;;;5034463;28;20101;-75
2021/12/24 14:34:36;;;;;;;31.17;13.83;;;9.40;99.90;;;;;;5017737;28;20014;-75